Houyosimaru — JK5572 — position and weather

sailwx.info

Track history (hours):
 
Tides and Currents Weather Stations Pressure Air Temp Water Temp Dewpoint Dewpoint Depression Visibility Wind Speed Wind Dir Waves Ship Positions

Houyosimaru

Last reported at 2018-Feb-17 23:30 UTC. Time now 2018-Feb-17 23:52 UTC.
Position N 35°28' E 139°54'.

Length 68 m; draft 4.2 m.

Type: Tanker. MMSI: 431401462.

Date/timePositionNaut miles runAvg speedWind from/ knotsBaromVisibWave heightAir tempDewpointWater temp
2018-Feb-17 23:30N 35°28' E 139°54'0 0.0
2018-Feb-17 23:00N 35°28' E 139°54'0 0.0
2018-Feb-17 22:30N 35°28' E 139°54'0 0.0
2018-Feb-17 22:00N 35°28' E 139°54'0 0.0
2018-Feb-17 21:30N 35°28' E 139°54'0 0.0
2018-Feb-17 21:00N 35°28' E 139°54'0 0.1
2018-Feb-17 20:30N 35°28' E 139°54'0 0.1
2018-Feb-17 20:00N 35°28' E 139°54'0 0.0
2018-Feb-17 19:30N 35°28' E 139°54'0 0.0
2018-Feb-17 19:00N 35°28' E 139°54'0 0.0
2018-Feb-17 18:30N 35°28' E 139°54'0 0.0
2018-Feb-17 18:00N 35°28' E 139°54'0 0.0
2018-Feb-17 17:30N 35°28' E 139°54'0 0.0
2018-Feb-17 17:00N 35°28' E 139°54'0 0.0
2018-Feb-17 16:30N 35°28' E 139°54'0 0.1
2018-Feb-17 16:00N 35°28' E 139°54'0 0.0
2018-Feb-17 15:30N 35°28' E 139°54'0 0.0
2018-Feb-17 15:00N 35°28' E 139°54'0 0.0
2018-Feb-17 14:30N 35°28' E 139°54'0 0.0
2018-Feb-17 14:00N 35°28' E 139°54'0 0.0
2018-Feb-17 13:30N 35°28' E 139°54'3 6.3
2018-Feb-17 13:00N 35°27' E 139°51'611.4
2018-Feb-17 12:30N 35°23' E 139°46'510.6
2018-Feb-17 12:00N 35°18' E 139°45'510.9
2018-Feb-17 11:30N 35°13' E 139°47'611.7
2018-Feb-17 11:00N 35°07' E 139°45'812.3
2018-Feb-17 10:21N 35°01' E 139°38'1714.3
2018-Feb-17 09:11N 34°51' E 139°22'414.4
2018-Feb-17 08:55N 34°49' E 139°18'614.2
2018-Feb-17 08:29N 34°45' E 139°13'813.2
2018-Feb-17 07:55N 34°40' E 139°06'612.2
2018-Feb-17 07:27N 34°37' E 139°00'913.0
2018-Feb-17 06:45N 34°34' E 138°49'613.3
2018-Feb-17 06:18N 34°33' E 138°42'413.5
2018-Feb-17 06:00N 34°32' E 138°38'913.3
2018-Feb-17 05:20N 34°31' E 138°27'17411.4
2018-Feb-16 14:11N 33°51' E 135°03'213.5
2018-Feb-16 14:00N 33°53' E 135°01'713.3
2018-Feb-16 13:31N 33°60' E 134°60'713.1
2018-Feb-16 13:00N 34°06' E 134°59'713.1
2018-Feb-16 12:31N 34°13' E 134°59'612.3
2018-Feb-16 12:00N 34°19' E 134°59'612.2
2018-Feb-16 11:30N 34°25' E 135°00'612.6
2018-Feb-16 11:00N 34°31' E 135°02'510.2
2018-Feb-16 10:30N 34°36' E 135°02'510.7
2018-Feb-16 10:00N 34°35' E 134°55'612.7
2018-Feb-16 09:30N 34°33' E 134°48'713.0
2018-Feb-16 09:00N 34°30' E 134°41'713.3
2018-Feb-16 08:30N 34°28' E 134°33'10 0.4
2018-Feb-15 07:10N 34°21' E 134°25'212.9
2018-Feb-15 07:00N 34°20' E 134°27'612.9
2018-Feb-15 06:30N 34°17' E 134°34'611.9
2018-Feb-15 05:58N 34°13' E 134°40'612.1
2018-Feb-15 05:29N 34°08' E 134°44'612.4
2018-Feb-15 05:00N 34°04' E 134°49'812.7
2018-Feb-15 04:23N 33°58' E 134°55'512.8
2018-Feb-15 03:59N 33°54' E 134°59'16910.3
2018-Feb-14 11:39N 34°34' E 138°18'411.9
2018-Feb-14 11:19N 34°33' E 138°22'411.5
2018-Feb-14 11:00N 34°32' E 138°27'611.2
2018-Feb-14 10:30N 34°33' E 138°34'1710.7
2018-Feb-14 08:53N 34°35' E 138°55'510.0
2018-Feb-14 08:26N 34°37' E 138°59'511.3
2018-Feb-14 08:00N 34°41' E 139°03'610.8
2018-Feb-14 07:29N 34°46' E 139°07'810.5
2018-Feb-14 06:42N 34°52' E 139°13'410.5
2018-Feb-14 06:18N 34°55' E 139°17'16 9.5
2018-Feb-14 04:39N 35°03' E 139°33'211.4
2018-Feb-14 04:27N 35°04' E 139°36'711.9
2018-Feb-14 03:50N 35°08' E 139°43'412.2
2018-Feb-14 03:30N 35°11' E 139°46'611.6
2018-Feb-14 03:00N 35°17' E 139°45'612.2
2018-Feb-14 02:30N 35°23' E 139°42'612.3
2018-Feb-14 02:00N 35°28' E 139°47'3 5.7
2018-Feb-14 01:28N 35°31' E 139°46'0 0.0
2018-Feb-14 00:58N 35°31' E 139°46'0 0.0
2018-Feb-14 00:28N 35°31' E 139°46'0 0.0
2018-Feb-13 23:55N 35°31' E 139°46'0 0.0
2018-Feb-13 23:28N 35°31' E 139°46'0 0.0
2018-Feb-13 22:58N 35°31' E 139°46'0 0.0
2018-Feb-13 22:28N 35°31' E 139°46'0 0.0
2018-Feb-13 21:58N 35°31' E 139°46'2 3.9
2018-Feb-13 21:31N 35°29' E 139°46'0 0.5
2018-Feb-13 20:58N 35°29' E 139°46'0 0.0
2018-Feb-13 20:28N 35°29' E 139°46'0 0.0
2018-Feb-13 19:58N 35°29' E 139°46'0 0.0
2018-Feb-13 19:25N 35°29' E 139°46'0 0.0
2018-Feb-13 18:55N 35°29' E 139°46'0 0.0
2018-Feb-13 18:28N 35°29' E 139°46'0 0.0
2018-Feb-13 17:58N 35°29' E 139°46'0 0.0
2018-Feb-13 17:28N 35°29' E 139°46'0 0.0
2018-Feb-13 16:55N 35°29' E 139°46'0 0.0
2018-Feb-13 16:28N 35°29' E 139°46'0 0.0
2018-Feb-13 15:58N 35°29' E 139°46'0 0.0
2018-Feb-13 15:28N 35°29' E 139°46'0 0.0
2018-Feb-13 14:58N 35°29' E 139°46'0 0.0
2018-Feb-13 14:25N 35°29' E 139°46'0 0.0
2018-Feb-13 13:58N 35°29' E 139°46'0 0.0
2018-Feb-13 13:28N 35°29' E 139°46'0 0.0
2018-Feb-13 12:58N 35°29' E 139°46'0 0.0
2018-Feb-13 12:28N 35°29' E 139°46'0 0.0
2018-Feb-13 11:58N 35°29' E 139°46'0 0.0
2018-Feb-13 11:28N 35°29' E 139°46'0 0.0
2018-Feb-13 10:52N 35°29' E 139°46'0 0.0
2018-Feb-13 10:28N 35°29' E 139°46'0 0.0
2018-Feb-13 09:58N 35°29' E 139°46'0 0.0
2018-Feb-13 09:30N 35°29' E 139°46'4 8.0
2018-Feb-13 09:00N 35°25' E 139°47'612.8
2018-Feb-13 08:30N 35°19' E 139°44'611.8
2018-Feb-13 08:00N 35°13' E 139°47'612.8
2018-Feb-13 07:30N 35°07' E 139°46'  
2018-Feb-10 04:37N 35°03' E 139°44'413.1
2018-Feb-10 04:21N 35°07' E 139°45'413.0
2018-Feb-10 04:00N 35°11' E 139°46'612.5
2018-Feb-10 03:30N 35°17' E 139°45'612.5
2018-Feb-10 03:00N 35°23' E 139°42'712.9
2018-Feb-10 02:30N 35°28' E 139°47'2 4.6
2018-Feb-10 02:00N 35°31' E 139°46'0 0.0
2018-Feb-10 01:31N 35°31' E 139°46'0 0.0
2018-Feb-10 01:01N 35°31' E 139°46'0 0.0
2018-Feb-10 00:31N 35°31' E 139°46'0 0.0
2018-Feb-10 00:01N 35°31' E 139°46'0 0.0
2018-Feb-09 23:31N 35°31' E 139°46'0 0.0
2018-Feb-09 23:01N 35°31' E 139°46'0 0.0
2018-Feb-09 22:46N 35°31' E 139°46'0 0.0
2018-Feb-09 22:31N 35°31' E 139°46'0 0.0
2018-Feb-09 22:01N 35°31' E 139°46'2 4.6
2018-Feb-09 21:31N 35°29' E 139°47'611.8
2018-Feb-09 21:01N 35°23' E 139°44'0 0.0
2018-Feb-08 23:00N 35°23' E 139°44'0 0.0
2018-Feb-08 22:30N 35°23' E 139°44'0 0.0
2018-Feb-08 22:00N 35°23' E 139°44'0 0.0
2018-Feb-08 21:00N 35°23' E 139°44'0 0.0
2018-Feb-08 20:30N 35°23' E 139°44'0 0.0
2018-Feb-08 18:30N 35°23' E 139°44'0 0.0
2018-Feb-08 18:00N 35°23' E 139°44'0 0.0
2018-Feb-08 17:30N 35°23' E 139°44'0 0.0
2018-Feb-08 17:00N 35°23' E 139°44'0 0.0
2018-Feb-08 16:30N 35°23' E 139°44'0 0.0
2018-Feb-08 16:00N 35°23' E 139°44'  
Track history (hours):
 
Tides and Currents Weather Stations Pressure Air Temp Water Temp Dewpoint Dewpoint Depression Visibility Wind Speed Wind Dir Waves Ship Positions

Houyosimaru

Last reported at 2018-Feb-17 23:30 UTC. Time now 2018-Feb-17 23:52 UTC.
Position N 35°28' E 139°54'.

Length 68 m; draft 4.2 m.

Type: Tanker. MMSI: 431401462.

Date/timePositionNaut miles runAvg speedWind from/ knotsBaromVisibWave heightAir tempDewpointWater temp
2018-Feb-17 23:30N 35°28' E 139°54'0 0.0
2018-Feb-17 23:00N 35°28' E 139°54'0 0.0
2018-Feb-17 22:30N 35°28' E 139°54'0 0.0
2018-Feb-17 22:00N 35°28' E 139°54'0 0.0
2018-Feb-17 21:30N 35°28' E 139°54'0 0.0
2018-Feb-17 21:00N 35°28' E 139°54'0 0.1
2018-Feb-17 20:30N 35°28' E 139°54'0 0.1
2018-Feb-17 20:00N 35°28' E 139°54'0 0.0
2018-Feb-17 19:30N 35°28' E 139°54'0 0.0
2018-Feb-17 19:00N 35°28' E 139°54'0 0.0
2018-Feb-17 18:30N 35°28' E 139°54'0 0.0
2018-Feb-17 18:00N 35°28' E 139°54'0 0.0
2018-Feb-17 17:30N 35°28' E 139°54'0 0.0
2018-Feb-17 17:00N 35°28' E 139°54'0 0.0
2018-Feb-17 16:30N 35°28' E 139°54'0 0.1
2018-Feb-17 16:00N 35°28' E 139°54'0 0.0
2018-Feb-17 15:30N 35°28' E 139°54'0 0.0
2018-Feb-17 15:00N 35°28' E 139°54'0 0.0
2018-Feb-17 14:30N 35°28' E 139°54'0 0.0
2018-Feb-17 14:00N 35°28' E 139°54'0 0.0
2018-Feb-17 13:30N 35°28' E 139°54'3 6.3
2018-Feb-17 13:00N 35°27' E 139°51'611.4
2018-Feb-17 12:30N 35°23' E 139°46'510.6
2018-Feb-17 12:00N 35°18' E 139°45'510.9
2018-Feb-17 11:30N 35°13' E 139°47'611.7
2018-Feb-17 11:00N 35°07' E 139°45'812.3
2018-Feb-17 10:21N 35°01' E 139°38'1714.3
2018-Feb-17 09:11N 34°51' E 139°22'414.4
2018-Feb-17 08:55N 34°49' E 139°18'614.2
2018-Feb-17 08:29N 34°45' E 139°13'813.2
2018-Feb-17 07:55N 34°40' E 139°06'612.2
2018-Feb-17 07:27N 34°37' E 139°00'913.0
2018-Feb-17 06:45N 34°34' E 138°49'613.3
2018-Feb-17 06:18N 34°33' E 138°42'413.5
2018-Feb-17 06:00N 34°32' E 138°38'913.3
2018-Feb-17 05:20N 34°31' E 138°27'17411.4
2018-Feb-16 14:11N 33°51' E 135°03'213.5
2018-Feb-16 14:00N 33°53' E 135°01'713.3
2018-Feb-16 13:31N 33°60' E 134°60'713.1
2018-Feb-16 13:00N 34°06' E 134°59'713.1
2018-Feb-16 12:31N 34°13' E 134°59'612.3
2018-Feb-16 12:00N 34°19' E 134°59'612.2
2018-Feb-16 11:30N 34°25' E 135°00'612.6
2018-Feb-16 11:00N 34°31' E 135°02'510.2
2018-Feb-16 10:30N 34°36' E 135°02'510.7
2018-Feb-16 10:00N 34°35' E 134°55'612.7
2018-Feb-16 09:30N 34°33' E 134°48'713.0
2018-Feb-16 09:00N 34°30' E 134°41'713.3
2018-Feb-16 08:30N 34°28' E 134°33'10 0.4
2018-Feb-15 07:10N 34°21' E 134°25'212.9
2018-Feb-15 07:00N 34°20' E 134°27'612.9
2018-Feb-15 06:30N 34°17' E 134°34'611.9
2018-Feb-15 05:58N 34°13' E 134°40'612.1
2018-Feb-15 05:29N 34°08' E 134°44'612.4
2018-Feb-15 05:00N 34°04' E 134°49'812.7
2018-Feb-15 04:23N 33°58' E 134°55'512.8
2018-Feb-15 03:59N 33°54' E 134°59'16910.3
2018-Feb-14 11:39N 34°34' E 138°18'411.9
2018-Feb-14 11:19N 34°33' E 138°22'411.5
2018-Feb-14 11:00N 34°32' E 138°27'611.2
2018-Feb-14 10:30N 34°33' E 138°34'1710.7
2018-Feb-14 08:53N 34°35' E 138°55'510.0
2018-Feb-14 08:26N 34°37' E 138°59'511.3
2018-Feb-14 08:00N 34°41' E 139°03'610.8
2018-Feb-14 07:29N 34°46' E 139°07'810.5
2018-Feb-14 06:42N 34°52' E 139°13'410.5
2018-Feb-14 06:18N 34°55' E 139°17'16 9.5
2018-Feb-14 04:39N 35°03' E 139°33'211.4
2018-Feb-14 04:27N 35°04' E 139°36'711.9
2018-Feb-14 03:50N 35°08' E 139°43'412.2
2018-Feb-14 03:30N 35°11' E 139°46'611.6
2018-Feb-14 03:00N 35°17' E 139°45'612.2
2018-Feb-14 02:30N 35°23' E 139°42'612.3
2018-Feb-14 02:00N 35°28' E 139°47'3 5.7
2018-Feb-14 01:28N 35°31' E 139°46'0 0.0
2018-Feb-14 00:58N 35°31' E 139°46'0 0.0
2018-Feb-14 00:28N 35°31' E 139°46'0 0.0
2018-Feb-13 23:55N 35°31' E 139°46'0 0.0
2018-Feb-13 23:28N 35°31' E 139°46'0 0.0
2018-Feb-13 22:58N 35°31' E 139°46'0 0.0
2018-Feb-13 22:28N 35°31' E 139°46'0 0.0
2018-Feb-13 21:58N 35°31' E 139°46'2 3.9
2018-Feb-13 21:31N 35°29' E 139°46'0 0.5
2018-Feb-13 20:58N 35°29' E 139°46'0 0.0
2018-Feb-13 20:28N 35°29' E 139°46'0 0.0
2018-Feb-13 19:58N 35°29' E 139°46'0 0.0
2018-Feb-13 19:25N 35°29' E 139°46'0 0.0
2018-Feb-13 18:55N 35°29' E 139°46'0 0.0
2018-Feb-13 18:28N 35°29' E 139°46'0 0.0
2018-Feb-13 17:58N 35°29' E 139°46'0 0.0
2018-Feb-13 17:28N 35°29' E 139°46'0 0.0
2018-Feb-13 16:55N 35°29' E 139°46'0 0.0
2018-Feb-13 16:28N 35°29' E 139°46'0 0.0
2018-Feb-13 15:58N 35°29' E 139°46'0 0.0
2018-Feb-13 15:28N 35°29' E 139°46'0 0.0
2018-Feb-13 14:58N 35°29' E 139°46'0 0.0
2018-Feb-13 14:25N 35°29' E 139°46'0 0.0
2018-Feb-13 13:58N 35°29' E 139°46'0 0.0
2018-Feb-13 13:28N 35°29' E 139°46'0 0.0
2018-Feb-13 12:58N 35°29' E 139°46'0 0.0
2018-Feb-13 12:28N 35°29' E 139°46'0 0.0
2018-Feb-13 11:58N 35°29' E 139°46'0 0.0
2018-Feb-13 11:28N 35°29' E 139°46'0 0.0
2018-Feb-13 10:52N 35°29' E 139°46'0 0.0
2018-Feb-13 10:28N 35°29' E 139°46'0 0.0
2018-Feb-13 09:58N 35°29' E 139°46'0 0.0
2018-Feb-13 09:30N 35°29' E 139°46'4 8.0
2018-Feb-13 09:00N 35°25' E 139°47'612.8
2018-Feb-13 08:30N 35°19' E 139°44'611.8
2018-Feb-13 08:00N 35°13' E 139°47'612.8
2018-Feb-13 07:30N 35°07' E 139°46'  
2018-Feb-10 04:37N 35°03' E 139°44'413.1
2018-Feb-10 04:21N 35°07' E 139°45'413.0
2018-Feb-10 04:00N 35°11' E 139°46'612.5
2018-Feb-10 03:30N 35°17' E 139°45'612.5
2018-Feb-10 03:00N 35°23' E 139°42'712.9
2018-Feb-10 02:30N 35°28' E 139°47'2 4.6
2018-Feb-10 02:00N 35°31' E 139°46'0 0.0
2018-Feb-10 01:31N 35°31' E 139°46'0 0.0
2018-Feb-10 01:01N 35°31' E 139°46'0 0.0
2018-Feb-10 00:31N 35°31' E 139°46'0 0.0
2018-Feb-10 00:01N 35°31' E 139°46'0 0.0
2018-Feb-09 23:31N 35°31' E 139°46'0 0.0
2018-Feb-09 23:01N 35°31' E 139°46'0 0.0
2018-Feb-09 22:46N 35°31' E 139°46'0 0.0
2018-Feb-09 22:31N 35°31' E 139°46'0 0.0
2018-Feb-09 22:01N 35°31' E 139°46'2 4.6
2018-Feb-09 21:31N 35°29' E 139°47'611.8
2018-Feb-09 21:01N 35°23' E 139°44'0 0.0
2018-Feb-08 23:00N 35°23' E 139°44'0 0.0
2018-Feb-08 22:30N 35°23' E 139°44'0 0.0
2018-Feb-08 22:00N 35°23' E 139°44'0 0.0
2018-Feb-08 21:00N 35°23' E 139°44'0 0.0
2018-Feb-08 20:30N 35°23' E 139°44'0 0.0
2018-Feb-08 18:30N 35°23' E 139°44'0 0.0
2018-Feb-08 18:00N 35°23' E 139°44'0 0.0
2018-Feb-08 17:30N 35°23' E 139°44'0 0.0
2018-Feb-08 17:00N 35°23' E 139°44'0 0.0
2018-Feb-08 16:30N 35°23' E 139°44'0 0.0
2018-Feb-08 16:00N 35°23' E 139°44'  

Dump ship's entire track history